Time;durP1;ratioP1;P1;durP2;ratioP2;P2;SDS_P1;SDS_P2;PMS_P1;PMS_P2;Temp;Humidity;BMP_temperature;BMP_pressure;BME280_temperature;BME280_humidity;BME280_pressure;Samples;Min_cycle;Max_cycle;Signal;HPM_P1;HPM_P2
2023/02/13 00:01:17;;;;;;;63.90;33.25;;;;;;;1.71;67.99;96345.47;4245171;27;20111;-52
2023/02/13 00:03:19;;;;;;;66.25;35.58;;;;;;;1.76;68.58;96347.88;4244468;27;20082;-52
2023/02/13 00:05:21;;;;;;;64.25;34.13;;;;;;;1.77;68.41;96350.38;4242438;27;20096;-53
2023/02/13 00:07:22;;;;;;;63.80;33.80;;;;;;;1.78;67.67;96351.22;4245759;27;20047;-51
2023/02/13 00:09:24;;;;;;;63.47;34.30;;;;;;;1.75;68.28;96362.53;4245661;27;20134;-53
2023/02/13 00:11:26;;;;;;;66.85;34.63;;;;;;;1.78;68.26;96353.81;4244640;27;20081;-53
2023/02/13 00:13:27;;;;;;;62.95;32.30;;;;;;;1.74;68.42;96358.28;4244640;27;20040;-57
2023/02/13 00:15:29;;;;;;;65.90;34.80;;;;;;;1.74;68.27;96349.66;4245568;27;20137;-52
2023/02/13 00:17:31;;;;;;;65.60;33.63;;;;;;;1.73;68.13;96353.16;4244810;27;20116;-53
2023/02/13 00:19:33;;;;;;;63.90;34.50;;;;;;;1.77;67.99;96344.38;4244909;27;20054;-53
2023/02/13 00:21:34;;;;;;;60.85;32.90;;;;;;;1.70;67.52;96359.31;4247287;27;20143;-52
2023/02/13 00:23:37;;;;;;;67.20;34.35;;;;;;;1.71;68.33;96360.97;4246942;27;20058;-55
2023/02/13 00:25:38;;;;;;;62.30;31.75;;;;;;;1.70;68.24;96351.56;4248351;27;20051;-55
2023/02/13 00:27:40;;;;;;;65.57;33.95;;;;;;;1.71;68.14;96357.56;4236969;27;20054;-52
2023/02/13 00:29:42;;;;;;;59.10;32.38;;;;;;;1.75;68.43;96362.53;4241764;27;20055;-53
2023/02/13 00:31:43;;;;;;;65.78;34.13;;;;;;;1.77;67.52;96365.06;4234862;27;20055;-50
2023/02/13 00:33:46;;;;;;;63.83;32.75;;;;;;;1.80;67.32;96362.34;4235893;27;20101;-51
2023/02/13 00:35:47;;;;;;;59.65;32.45;;;;;;;1.79;67.80;96364.09;4230450;27;20063;-52
2023/02/13 00:37:49;;;;;;;59.00;32.35;;;;;;;1.82;68.05;96358.78;4235611;27;20378;-52
2023/02/13 00:39:51;;;;;;;66.85;33.05;;;;;;;1.87;68.28;96360.31;4236392;27;20098;-51
2023/02/13 00:41:52;;;;;;;68.30;34.85;;;;;;;1.91;68.66;96369.63;4244774;27;20436;-53
2023/02/13 00:43:54;;;;;;;66.97;33.58;;;;;;;1.92;68.10;96358.41;4235595;27;20100;-53
2023/02/13 00:45:57;;;;;;;59.10;32.22;;;;;;;1.92;67.59;96359.25;4248139;27;20112;-54
2023/02/13 00:47:59;;;;;;;62.35;32.35;;;;;;;1.95;67.23;96358.25;4246270;27;20078;-55
2023/02/13 00:50:01;;;;;;;62.25;33.67;;;;;;;1.93;67.01;96365.25;4257158;27;20604;-55
2023/02/13 00:52:02;;;;;;;60.17;31.08;;;;;;;1.95;67.28;96359.09;4235723;27;20138;-55
2023/02/13 00:54:04;;;;;;;61.40;32.28;;;;;;;1.85;67.74;96365.59;4247930;27;20424;-53
2023/02/13 00:56:06;;;;;;;58.17;31.35;;;;;;;1.88;67.53;96367.19;4239327;27;20050;-51
2023/02/13 00:58:08;;;;;;;62.95;33.53;;;;;;;1.89;67.38;96376.59;4242258;27;20130;-49
2023/02/13 01:00:10;;;;;;;65.10;33.92;;;;;;;1.90;67.52;96373.13;4246249;27;20505;-52
2023/02/13 01:02:12;;;;;;;62.58;34.53;;;;;;;1.84;67.89;96377.63;4246971;27;20047;-53
2023/02/13 01:04:13;;;;;;;59.65;33.28;;;;;;;1.86;67.82;96376.75;4247066;27;20100;-56
2023/02/13 01:06:15;;;;;;;62.70;31.85;;;;;;;1.82;67.29;96376.03;4244901;27;20134;-51
2023/02/13 01:08:18;;;;;;;64.90;33.40;;;;;;;1.81;67.68;96375.19;4239159;27;20097;-54
2023/02/13 01:10:20;;;;;;;63.00;33.85;;;;;;;1.89;67.62;96381.78;4242010;27;20055;-54
2023/02/13 01:12:22;;;;;;;62.45;33.83;;;;;;;1.86;67.56;96369.84;4246979;27;20068;-54
2023/02/13 01:14:24;;;;;;;59.05;31.95;;;;;;;1.84;68.14;96369.06;4246258;27;20768;-56
2023/02/13 01:16:25;;;;;;;59.35;33.10;;;;;;;1.83;67.92;96375.16;4238935;27;20055;-55
2023/02/13 01:18:27;;;;;;;59.42;33.67;;;;;;;1.86;67.95;96369.84;4230155;27;20043;-54
2023/02/13 01:20:29;;;;;;;64.13;32.58;;;;;;;1.88;67.73;96377.53;4245755;27;20043;-56
2023/02/13 01:22:31;;;;;;;62.17;33.30;;;;;;;1.82;67.95;96379.44;4241361;27;20059;-54
2023/02/13 01:24:32;;;;;;;64.40;32.50;;;;;;;1.71;68.09;96383.41;4239845;27;20051;-54
2023/02/13 01:26:34;;;;;;;69.68;36.45;;;;;;;1.70;68.32;96384.28;4247564;27;20051;-53
2023/02/13 01:28:36;;;;;;;71.15;35.67;;;;;;;1.64;68.92;96386.22;4245025;27;20054;-52
2023/02/13 01:30:38;;;;;;;63.55;35.40;;;;;;;1.73;68.55;96381.59;4247201;27;20445;-53
2023/02/13 01:32:40;;;;;;;66.03;33.90;;;;;;;1.61;68.32;96376.03;4245910;27;20142;-53
2023/02/13 01:34:42;;;;;;;65.95;33.10;;;;;;;1.65;68.61;96371.56;4246111;27;20078;-52
2023/02/13 01:36:44;;;;;;;60.42;33.63;;;;;;;1.69;68.73;96380.03;4246269;27;20116;-51
2023/02/13 01:38:45;;;;;;;68.18;34.25;;;;;;;1.67;68.90;96381.84;4239494;27;20126;-52
2023/02/13 01:40:49;;;;;;;68.28;33.92;;;;;;;1.67;68.72;96384.44;4241888;27;20046;-54
2023/02/13 01:42:50;;;;;;;66.68;35.22;;;;;;;1.69;68.95;96393.78;4233869;27;20530;-54
2023/02/13 01:45:01;;;;;;;65.38;35.85;;;;;;;1.72;68.88;96382.47;4243285;27;20103;-55
2023/02/13 01:47:03;;;;;;;68.47;34.17;;;;;;;1.72;68.53;96388.50;4235125;27;20188;-57
2023/02/13 01:49:18;;;;;;;63.45;34.58;;;;;;;1.68;68.82;96389.53;4237662;27;20549;-56
2023/02/13 01:51:24;;;;;;;66.90;36.08;;;;;;;1.73;69.60;96386.75;4236293;27;20084;-55
2023/02/13 01:53:52;;;;;;;67.60;34.30;;;;;;;1.69;69.20;96383.47;4234811;27;20051;-54
2023/02/13 01:56:01;;;;;;;61.55;33.95;;;;;;;1.68;69.60;96399.00;4230092;27;20488;-51
2023/02/13 01:58:09;;;;;;;66.53;34.95;;;;;;;1.73;69.48;96397.94;4238570;27;20105;-53
2023/02/13 02:00:15;;;;;;;63.03;33.90;;;;;;;1.73;69.16;96400.50;4246447;27;20100;-54
2023/02/13 02:02:18;;;;;;;65.65;34.42;;;;;;;1.81;69.75;96395.88;4246165;27;20688;-53
2023/02/13 02:04:34;;;;;;;67.38;34.00;;;;;;;1.79;69.25;96400.25;4247117;27;20050;-53
2023/02/13 02:06:40;;;;;;;71.20;33.78;;;;;;;1.79;68.76;96396.84;4245732;27;20047;-53
2023/02/13 02:08:42;;;;;;;71.60;35.60;;;;;;;1.75;69.21;96400.47;4233962;27;20092;-55
2023/02/13 02:10:44;;;;;;;70.38;34.80;;;;;;;1.83;69.32;96393.22;4241975;27;20051;-54
2023/02/13 02:13:17;;;;;;;69.72;36.08;;;;;;;1.82;69.04;96389.78;4246070;27;20142;-54
2023/02/13 02:15:20;;;;;;;68.30;35.85;;;;;;;1.87;69.41;96386.16;4236577;27;20585;-55
2023/02/13 02:17:23;;;;;;;66.22;34.22;;;;;;;1.91;68.98;96380.81;4235137;27;20059;-51
2023/02/13 02:19:48;;;;;;;65.05;34.60;;;;;;;1.94;68.85;96387.63;4229316;28;20052;-53
2023/02/13 02:22:02;;;;;;;77.80;37.50;;;;;;;1.97;68.82;96383.13;4243232;27;20116;-49
2023/02/13 02:24:12;;;;;;;70.82;35.15;;;;;;;1.92;68.83;96386.84;4246173;27;20038;-53
2023/02/13 02:26:51;;;;;;;64.55;34.58;;;;;;;1.90;68.93;96391.22;4248666;27;20442;-51
2023/02/13 02:29:22;;;;;;;73.68;36.17;;;;;;;1.90;68.83;96386.06;4228209;27;20039;-54
2023/02/13 02:32:02;;;;;;;67.65;36.13;;;;;;;1.91;68.93;96383.38;4254734;27;20048;-53
2023/02/13 02:34:22;;;;;;;65.70;35.60;;;;;;;1.89;68.66;96380.03;4227803;28;20108;-54
2023/02/13 02:36:36;;;;;;;65.93;33.67;;;;;;;1.86;69.15;96381.91;4234313;27;20587;-54
2023/02/13 02:39:03;;;;;;;67.83;36.90;;;;;;;1.83;68.78;96381.16;4246109;27;20078;-56
2023/02/13 02:41:41;;;;;;;71.57;35.92;;;;;;;1.79;68.80;96394.25;4243112;27;20129;-52
2023/02/13 02:43:54;;;;;;;61.88;34.08;;;;;;;1.64;69.19;96396.56;4228301;27;20047;-52
2023/02/13 02:46:31;;;;;;;70.75;34.65;;;;;;;1.70;69.24;96399.78;4221691;28;20425;-52
2023/02/13 02:51:22;;;;;;;70.38;34.25;;;;;;;1.84;68.79;96400.06;4225645;28;20079;-50
2023/02/13 02:53:39;;;;;;;65.75;35.92;;;;;;;1.88;68.67;96409.38;4209955;28;20136;-52
2023/02/13 02:55:49;;;;;;;68.22;32.97;;;;;;;1.93;68.27;96414.34;4228819;27;20096;-49
2023/02/13 03:07:50;;;;;;;66.55;34.45;;;;;;;1.61;69.20;96419.09;4212502;28;20147;-52
2023/02/13 03:14:41;;;;;;;68.75;35.70;;;;;;;1.83;68.30;96417.31;4232289;28;20477;-53
2023/02/13 03:24:20;;;;;;;64.40;34.35;;;;;;;2.08;68.47;96410.28;4244573;28;20055;-53
2023/02/13 03:26:48;;;;;;;67.82;32.67;;;;;;;2.12;68.62;96407.50;4245858;27;20058;-53
2023/02/13 03:31:37;;;;;;;63.95;32.65;;;;;;;1.91;67.75;96421.31;4244427;28;20101;-54
2023/02/13 03:34:05;;;;;;;63.22;33.00;;;;;;;1.90;67.54;96415.31;4243822;28;20044;-53
2023/02/13 03:39:32;;;;;;;66.38;33.03;;;;;;;1.77;67.93;96417.56;4208072;28;20449;-54
2023/02/13 03:41:51;;;;;;;62.95;33.90;;;;;;;1.80;67.79;96414.00;4193405;27;20107;-56
2023/02/13 03:43:59;;;;;;;60.30;31.67;;;;;;;1.80;67.74;96417.44;4233883;28;20040;-53
2023/02/13 03:46:01;;;;;;;62.38;32.60;;;;;;;1.70;67.97;96410.13;4245549;27;20070;-53
2023/02/13 03:50:04;;;;;;;66.78;33.75;;;;;;;1.74;67.97;96411.69;4243736;28;20112;-56
2023/02/13 03:50:32;;;;;;;67.30;33.53;;;;;;;1.81;68.06;96418.28;4244024;28;20051;-60
2023/02/13 03:52:43;;;;;;;60.45;31.45;;;;;;;1.86;67.81;96418.94;4244084;28;20460;-59
2023/02/13 03:59:35;;;;;;;68.95;32.90;;;;;;;1.91;67.21;96409.22;4247525;27;20043;-59
2023/02/13 04:01:38;;;;;;;66.03;33.37;;;;;;;1.89;67.24;96403.28;4246481;27;20178;-58
2023/02/13 04:03:56;;;;;;;61.53;32.60;;;;;;;1.79;67.50;96409.75;4246721;27;20054;-57
2023/02/13 04:06:12;;;;;;;56.28;31.08;;;;;;;1.73;67.77;96408.25;4236185;27;20488;-59
2023/02/13 04:08:13;;;;;;;63.38;33.40;;;;;;;1.71;68.07;96414.41;4247385;27;20043;-60
2023/02/13 04:10:16;;;;;;;62.90;31.58;;;;;;;1.65;67.87;96412.91;4246872;27;20054;-61
2023/02/13 04:12:20;;;;;;;67.33;33.40;;;;;;;1.70;68.17;96412.72;4248060;27;20059;-59
2023/02/13 04:14:42;;;;;;;68.55;35.25;;;;;;;1.73;68.00;96410.84;4247516;27;20275;-58
2023/02/13 04:16:48;;;;;;;61.50;32.38;;;;;;;1.81;67.90;96415.72;4245810;27;20055;-61
2023/02/13 04:18:51;;;;;;;65.55;33.13;;;;;;;1.90;67.47;96415.31;4244235;27;20047;-56
2023/02/13 04:20:52;;;;;;;61.90;32.00;;;;;;;1.86;67.19;96426.69;4245940;27;20079;-58
2023/02/13 04:22:54;;;;;;;61.10;31.65;;;;;;;1.78;67.81;96408.91;4247141;27;20047;-57
2023/02/13 04:24:56;;;;;;;66.97;34.17;;;;;;;1.76;67.38;96415.03;4247616;27;20043;-57
2023/02/13 04:26:58;;;;;;;60.83;31.48;;;;;;;1.73;67.77;96415.19;4244422;27;20109;-60
2023/02/13 04:28:59;;;;;;;64.43;33.45;;;;;;;1.77;67.44;96411.56;4248217;27;20042;-58
2023/02/13 04:31:01;;;;;;;57.40;31.73;;;;;;;1.81;67.52;96421.72;4244000;27;20479;-58
2023/02/13 04:33:03;;;;;;;61.13;32.83;;;;;;;1.89;67.25;96420.53;4246175;27;20521;-58
2023/02/13 04:35:05;;;;;;;60.55;32.10;;;;;;;1.86;67.23;96415.53;4241189;27;20042;-63
2023/02/13 04:37:07;;;;;;;65.68;33.15;;;;;;;1.89;67.03;96413.63;4239165;27;20490;-58
2023/02/13 04:39:10;;;;;;;62.03;32.42;;;;;;;1.90;66.98;96410.16;4235251;27;20642;-61
2023/02/13 04:41:12;;;;;;;59.13;32.00;;;;;;;1.94;67.37;96410.88;4236594;27;20120;-57
2023/02/13 04:43:13;;;;;;;63.40;33.97;;;;;;;1.94;67.10;96406.53;4232578;27;20127;-59
2023/02/13 04:45:15;;;;;;;65.25;32.22;;;;;;;1.84;66.55;96413.81;4243403;27;20093;-58
2023/02/13 04:47:17;;;;;;;64.38;32.53;;;;;;;1.83;67.23;96411.31;4230247;28;20496;-60
2023/02/13 04:49:19;;;;;;;57.90;30.95;;;;;;;1.89;67.46;96415.38;4231865;27;20441;-58
2023/02/13 04:51:20;;;;;;;63.80;33.30;;;;;;;1.81;67.23;96413.97;4244580;27;20047;-59
2023/02/13 04:53:22;;;;;;;61.95;31.23;;;;;;;1.83;66.86;96411.31;4243336;27;20056;-59
2023/02/13 04:55:25;;;;;;;59.45;31.17;;;;;;;1.61;67.52;96417.38;4230462;27;20040;-57
2023/02/13 04:57:27;;;;;;;63.47;32.75;;;;;;;1.36;67.70;96427.00;4230762;27;20100;-59
2023/02/13 04:59:28;;;;;;;58.67;31.15;;;;;;;1.25;68.70;96430.00;4246243;27;20741;-58
2023/02/13 05:01:30;;;;;;;68.20;34.65;;;;;;;1.21;68.80;96433.59;4243277;27;20085;-59
2023/02/13 05:03:32;;;;;;;63.35;32.53;;;;;;;1.06;69.47;96435.03;4231931;27;20047;-60
2023/02/13 05:05:34;;;;;;;64.40;33.03;;;;;;;1.14;69.36;96435.59;4243786;27;20093;-59
2023/02/13 05:07:36;;;;;;;59.42;32.38;;;;;;;1.26;68.74;96439.41;4233650;27;20088;-60
2023/02/13 05:09:37;;;;;;;71.50;35.70;;;;;;;1.32;68.44;96441.75;4248266;27;20101;-61
2023/02/13 05:11:42;;;;;;;80.05;40.47;;;;;;;1.08;68.97;96443.56;4238907;27;20715;-59
2023/02/13 05:13:43;;;;;;;79.82;40.80;;;;;;;0.92;70.53;96447.59;4230976;27;20047;-60
2023/02/13 05:15:46;;;;;;;93.53;51.38;;;;;;;0.76;70.77;96444.75;4230814;27;20051;-61
2023/02/13 05:17:49;;;;;;;99.18;51.28;;;;;;;0.70;70.91;96444.97;4237518;27;20462;-61
2023/02/13 05:19:50;;;;;;;98.53;49.80;;;;;;;0.54;71.80;96447.28;4247594;27;20096;-60
2023/02/13 05:24:12;;;;;;;92.75;47.90;;;;;;;0.91;70.73;96458.84;4248306;27;20070;-61
2023/02/13 05:26:13;;;;;;;93.43;46.28;;;;;;;0.92;70.81;96453.59;4238661;27;20046;-62
2023/02/13 05:30:38;;;;;;;89.53;43.63;;;;;;;0.64;70.98;96452.94;4254355;27;20053;-61
2023/02/13 05:32:42;;;;;;;88.10;42.92;;;;;;;0.58;71.40;96454.00;4230647;27;20413;-60
2023/02/13 05:34:43;;;;;;;;;;;;;;;0.55;71.35;96454.94;4238348;27;20599;-61
2023/02/13 05:36:45;;;;;;;78.78;40.63;;;;;;;0.47;71.17;96451.78;4236712;27;19923;-61
2023/02/13 05:38:47;;;;;;;85.78;41.25;;;;;;;0.38;72.14;96447.81;4244389;27;20524;-60
2023/02/13 05:40:48;;;;;;;86.28;43.08;;;;;;;0.34;71.85;96451.38;4243616;27;20092;-62
2023/02/13 05:42:52;;;;;;;83.25;41.08;;;;;;;0.35;72.00;96458.25;4235199;27;20060;-61
2023/02/13 05:44:54;;;;;;;82.15;40.88;;;;;;;0.45;72.14;96463.91;4245669;27;20055;-61
2023/02/13 05:46:56;;;;;;;84.15;42.60;;;;;;;0.40;71.56;96458.06;4247567;27;20050;-63
2023/02/13 05:48:57;;;;;;;79.10;40.22;;;;;;;0.36;71.59;96467.66;4246606;27;20055;-62
2023/02/13 05:50:59;;;;;;;84.60;42.05;;;;;;;0.27;72.42;96470.56;4246916;27;20050;-62
2023/02/13 05:53:01;;;;;;;79.55;41.35;;;;;;;0.21;72.49;96468.19;4246842;27;20187;-62
2023/02/13 05:55:03;;;;;;;75.90;37.78;;;;;;;0.35;72.41;96468.56;4247812;27;20075;-61
2023/02/13 05:57:04;;;;;;;72.53;36.35;;;;;;;0.51;71.84;96465.44;4245603;27;20772;-60
2023/02/13 05:59:06;;;;;;;76.28;37.08;;;;;;;0.53;71.28;96466.22;4246947;27;20050;-59
2023/02/13 06:01:08;;;;;;;66.45;34.10;;;;;;;0.48;71.26;96473.28;4244420;27;20062;-61
2023/02/13 06:03:09;;;;;;;71.93;36.78;;;;;;;0.29;72.01;96473.91;4234997;27;20047;-60
2023/02/13 06:05:11;;;;;;;70.57;35.63;;;;;;;0.15;72.77;96476.97;4246021;27;20103;-61
2023/02/13 06:07:12;;;;;;;76.03;39.90;;;;;;;0.15;73.27;96470.97;4245354;27;20072;-60
2023/02/13 06:09:14;;;;;;;75.32;39.35;;;;;;;0.18;72.66;96476.88;4233372;27;20134;-61
2023/02/13 06:11:16;;;;;;;75.57;37.92;;;;;;;0.33;72.58;96478.06;4246715;27;20050;-57
2023/02/13 06:13:18;;;;;;;73.60;38.65;;;;;;;0.32;72.35;96479.00;4246424;27;20092;-59
2023/02/13 06:15:19;;;;;;;78.70;36.80;;;;;;;0.35;72.91;96483.19;4244884;27;20043;-63
2023/02/13 06:17:21;;;;;;;74.97;38.58;;;;;;;0.54;72.78;96479.06;4245983;27;20775;-58
2023/02/13 06:19:23;;;;;;;79.80;39.10;;;;;;;0.67;72.02;96476.03;4246128;27;20512;-58
2023/02/13 06:21:24;;;;;;;75.32;39.05;;;;;;;0.69;71.10;96476.81;4246095;27;20047;-60
2023/02/13 06:23:26;;;;;;;74.78;36.60;;;;;;;0.72;70.55;96493.03;4245604;27;20176;-58
2023/02/13 06:25:28;;;;;;;77.63;40.80;;;;;;;0.62;71.17;96489.09;4234280;27;20440;-60
2023/02/13 06:27:30;;;;;;;81.25;38.80;;;;;;;0.49;71.17;96485.28;4244866;27;20051;-61
2023/02/13 06:29:31;;;;;;;73.72;37.40;;;;;;;0.47;72.00;96490.47;4248000;27;20048;-61
2023/02/13 06:31:33;;;;;;;69.95;35.90;;;;;;;0.53;71.60;96492.84;4249334;27;20083;-61
2023/02/13 06:33:35;;;;;;;89.63;43.20;;;;;;;0.18;72.07;96497.47;4239610;27;20059;-58
2023/02/13 06:35:37;;;;;;;77.90;40.72;;;;;;;0.07;72.58;96494.44;4246045;27;20387;-60
2023/02/13 06:37:38;;;;;;;81.30;41.45;;;;;;;0.07;72.66;96494.44;4246564;27;20051;-62
2023/02/13 06:39:41;;;;;;;79.93;40.67;;;;;;;0.25;72.81;96495.53;4246318;27;20061;-61
2023/02/13 06:41:43;;;;;;;77.22;39.72;;;;;;;0.42;72.36;96494.97;4239168;27;20051;-60
2023/02/13 06:43:44;;;;;;;76.90;38.40;;;;;;;0.60;71.47;96496.91;4234055;27;20421;-61
2023/02/13 06:45:46;;;;;;;84.03;41.15;;;;;;;0.49;71.46;96504.16;4238768;27;20748;-59
2023/02/13 06:47:49;;;;;;;79.65;39.50;;;;;;;0.47;71.70;96497.38;4244088;27;20051;-60
2023/02/13 06:49:50;;;;;;;75.78;40.25;;;;;;;0.37;71.85;96505.44;4245666;27;20104;-60
2023/02/13 06:51:52;;;;;;;80.88;42.15;;;;;;;0.48;71.89;96502.50;4244810;27;20078;-61
2023/02/13 06:53:54;;;;;;;82.63;42.60;;;;;;;0.76;71.98;96494.63;4245855;27;20179;-62
2023/02/13 06:55:56;;;;;;;78.22;42.08;;;;;;;1.08;70.99;96495.19;4232425;27;20372;-63
2023/02/13 06:57:58;;;;;;;87.88;43.55;;;;;;;1.24;69.42;96495.44;4231257;27;20122;-61
2023/02/13 07:00:03;;;;;;;78.30;40.88;;;;;;;1.41;69.15;96487.03;4228826;28;20063;-62
2023/02/13 07:02:05;;;;;;;82.90;42.72;;;;;;;1.59;68.95;96486.34;4240444;27;20074;-62
2023/02/13 07:04:06;;;;;;;78.68;39.33;;;;;;;1.80;68.13;96497.53;4231088;27;20055;-61
2023/02/13 07:06:08;;;;;;;80.97;42.53;;;;;;;1.91;67.28;96491.94;4233991;27;20039;-61
2023/02/13 07:08:11;;;;;;;76.18;37.05;;;;;;;2.06;66.87;96485.31;4238468;27;20527;-62
2023/02/13 07:10:13;;;;;;;71.65;38.25;;;;;;;2.11;66.34;96485.09;4229596;28;20048;-65
2023/02/13 07:12:15;;;;;;;63.80;33.20;;;;;;;2.18;66.38;96473.63;4231293;28;20048;-63
2023/02/13 07:14:16;;;;;;;66.70;35.28;;;;;;;2.17;66.05;96482.28;4240478;27;20040;-62
2023/02/13 07:16:18;;;;;;;67.90;34.60;;;;;;;2.13;66.20;96483.31;4229224;28;20044;-62
2023/02/13 07:18:20;;;;;;;55.33;29.60;;;;;;;2.01;66.36;96482.91;4241750;27;20054;-60
2023/02/13 07:20:22;;;;;;;62.97;33.05;;;;;;;2.07;66.47;96489.59;4229578;27;20419;-62
2023/02/13 07:22:23;;;;;;;61.88;33.42;;;;;;;2.03;66.18;96491.44;4229399;28;20070;-62
2023/02/13 07:24:25;;;;;;;57.58;32.05;;;;;;;1.86;66.38;96499.03;4229544;28;20180;-61
2023/02/13 07:26:27;;;;;;;56.60;31.75;;;;;;;1.98;66.60;96497.69;4227959;28;20050;-62
2023/02/13 07:28:29;;;;;;;80.93;42.33;;;;;;;1.88;66.39;96499.81;4228854;28;20058;-61
2023/02/13 07:30:32;;;;;;;76.97;42.05;;;;;;;1.76;67.43;96503.72;4254769;27;20739;-62
2023/02/13 07:32:33;;;;;;;84.00;43.70;;;;;;;1.53;67.77;96509.81;4249876;27;20099;-62
2023/02/13 07:34:35;;;;;;;81.63;43.30;;;;;;;1.22;68.75;96502.41;4249825;27;20081;-61
2023/02/13 07:36:37;;;;;;;86.55;45.05;;;;;;;1.40;69.49;96506.03;4249326;27;20047;-61
2023/02/13 07:38:38;;;;;;;86.00;43.05;;;;;;;1.25;69.06;96506.59;4236725;27;20052;-61
2023/02/13 07:40:40;;;;;;;65.85;34.50;;;;;;;1.41;68.80;96502.53;4244516;27;20091;-60
2023/02/13 07:42:42;;;;;;;85.55;42.97;;;;;;;1.38;68.33;96505.25;4239759;27;20081;-63
2023/02/13 07:44:43;;;;;;;71.38;37.63;;;;;;;1.36;69.13;96504.47;4240167;27;20071;-62
2023/02/13 07:46:45;;;;;;;66.93;34.40;;;;;;;1.41;68.20;96493.03;4237251;27;20035;-63
2023/02/13 07:48:47;;;;;;;74.85;37.47;;;;;;;1.52;68.33;96502.97;4236832;27;20063;-63
2023/02/13 07:50:49;;;;;;;74.25;35.33;;;;;;;1.69;68.04;96506.63;4238032;27;20059;-61
2023/02/13 07:52:54;;;;;;;61.05;30.83;;;;;;;1.92;67.52;96503.97;4248229;27;20130;-61
2023/02/13 07:54:55;;;;;;;59.65;32.80;;;;;;;2.02;66.55;96494.94;4248262;27;20047;-61
2023/02/13 07:56:58;;;;;;;74.15;35.58;;;;;;;1.93;66.74;96492.72;4241699;27;20067;-60
2023/02/13 07:59:00;;;;;;;57.50;30.67;;;;;;;2.05;66.41;96496.56;4235998;27;20483;-62
2023/02/13 08:01:06;;;;;;;56.20;29.38;;;;;;;2.07;66.22;96497.34;4247778;27;20074;-60
2023/02/13 08:03:08;;;;;;;57.05;29.90;;;;;;;2.14;65.82;96503.09;4237925;27;20048;-60
2023/02/13 08:05:10;;;;;;;59.08;32.33;;;;;;;1.77;66.45;96507.19;4243647;27;20047;-60
2023/02/13 08:07:13;;;;;;;60.22;31.70;;;;;;;1.45;67.48;96500.69;4241634;27;20075;-60
2023/02/13 08:11:53;;;;;;;58.35;29.50;;;;;;;1.40;68.35;96514.63;4239121;27;20044;-60
2023/02/13 08:13:55;;;;;;;57.65;29.52;;;;;;;1.43;68.41;96505.91;4245701;27;20093;-60
2023/02/13 08:15:56;;;;;;;59.38;29.83;;;;;;;1.59;68.09;96498.38;4243833;27;20044;-60
2023/02/13 08:17:59;;;;;;;57.25;29.95;;;;;;;1.69;67.21;96494.56;4238248;27;20063;-64
2023/02/13 08:20:00;;;;;;;57.85;30.35;;;;;;;1.81;66.95;96503.56;4240581;27;20043;-64
2023/02/13 08:22:02;;;;;;;53.22;29.13;;;;;;;1.50;67.90;96502.19;4238422;27;20158;-60
2023/02/13 08:24:04;;;;;;;60.90;30.92;;;;;;;1.30;69.32;96500.38;4236813;27;20040;-60
2023/02/13 08:26:06;;;;;;;60.00;31.20;;;;;;;0.95;69.46;96493.97;4244643;27;20047;-62
2023/02/13 08:28:08;;;;;;;62.38;30.40;;;;;;;1.21;70.03;96504.13;4240772;27;20070;-62
2023/02/13 08:30:10;;;;;;;63.72;32.83;;;;;;;1.30;68.85;96500.38;4255836;27;20049;-61
2023/02/13 08:32:12;;;;;;;63.40;32.88;;;;;;;1.24;69.48;96503.19;4239890;27;20270;-59
2023/02/13 08:34:13;;;;;;;69.80;33.28;;;;;;;1.08;69.95;96504.66;4234278;27;20060;-61
2023/02/13 08:36:15;;;;;;;71.97;33.17;;;;;;;1.25;69.79;96498.84;4247042;27;20041;-62
2023/02/13 08:38:17;;;;;;;64.75;33.80;;;;;;;1.20;69.16;96505.03;4239264;27;20189;-62
2023/02/13 08:40:19;;;;;;;70.05;35.10;;;;;;;1.08;70.39;96504.66;4240106;27;20053;-63
2023/02/13 08:42:20;;;;;;;71.07;39.85;;;;;;;1.20;70.21;96505.03;4234593;27;20040;-60
2023/02/13 08:44:22;;;;;;;82.43;38.05;;;;;;;1.26;69.64;96497.97;4231673;28;20087;-62
2023/02/13 08:46:23;;;;;;;72.22;36.78;;;;;;;1.24;70.13;96503.19;4231314;28;20127;-62
2023/02/13 08:48:26;;;;;;;77.88;39.13;;;;;;;1.36;70.08;96507.06;4235874;27;20421;-64
2023/02/13 08:50:27;;;;;;;68.22;35.58;;;;;;;1.68;69.18;96505.81;4248103;27;20085;-62
2023/02/13 08:52:29;;;;;;;65.93;34.33;;;;;;;1.78;68.08;96501.94;4248900;27;20062;-62
2023/02/13 08:54:34;;;;;;;65.45;34.92;;;;;;;1.43;68.82;96503.31;4248569;27;20140;-62
2023/02/13 08:56:35;;;;;;;65.70;33.35;;;;;;;1.07;70.47;96503.81;4248457;27;20058;-64
2023/02/13 08:58:37;;;;;;;70.80;34.25;;;;;;;0.95;70.68;96499.13;4248055;27;20058;-63
2023/02/13 09:00:39;;;;;;;69.72;35.08;;;;;;;1.10;70.50;96506.28;4234964;27;20059;-63
2023/02/13 09:02:40;;;;;;;77.07;38.13;;;;;;;1.16;70.20;96506.06;4246911;27;20740;-61
2023/02/13 09:04:42;;;;;;;70.70;34.35;;;;;;;1.19;70.02;96505.09;4246747;27;20047;-61
2023/02/13 09:06:44;;;;;;;68.72;34.25;;;;;;;1.26;70.61;96503.13;4240943;27;20093;-61
2023/02/13 09:08:45;;;;;;;69.93;34.92;;;;;;;1.25;70.83;96499.72;4248201;27;20047;-65
2023/02/13 09:10:55;;;;;;;68.25;36.67;;;;;;;1.44;70.01;96499.81;4231424;27;20399;-62
2023/02/13 09:12:57;;;;;;;68.50;35.58;;;;;;;1.79;69.78;96498.47;4239235;27;20054;-62
2023/02/13 09:14:58;;;;;;;74.07;37.47;;;;;;;1.97;68.41;96502.03;4248252;27;20055;-64
2023/02/13 09:17:01;;;;;;;76.22;36.97;;;;;;;2.19;67.23;96490.81;4246284;27;20524;-61
2023/02/13 09:19:03;;;;;;;67.80;35.58;;;;;;;2.25;66.81;96495.72;4236424;27;20039;-61
2023/02/13 09:21:08;;;;;;;70.53;35.65;;;;;;;1.94;67.41;96491.84;4236939;27;20051;-62
2023/02/13 09:23:09;;;;;;;67.55;35.08;;;;;;;1.86;68.23;96493.88;4244491;27;20057;-62
2023/02/13 09:25:11;;;;;;;75.30;37.92;;;;;;;2.05;68.37;96499.97;4247821;27;20126;-61
2023/02/13 09:27:13;;;;;;;71.60;33.95;;;;;;;2.09;67.05;96484.34;4240795;27;20423;-61
2023/02/13 09:29:14;;;;;;;65.25;33.58;;;;;;;2.23;66.94;96477.69;4230352;27;20090;-60
2023/02/13 09:31:19;;;;;;;67.88;34.72;;;;;;;2.21;65.81;96486.41;4260129;27;20498;-63
2023/02/13 09:33:20;;;;;;;64.95;34.55;;;;;;;2.18;66.17;96489.13;4238279;27;20051;-62
2023/02/13 09:35:23;;;;;;;62.95;32.95;;;;;;;2.40;66.23;96479.56;4242761;27;20051;-63
2023/02/13 09:37:25;;;;;;;59.95;31.67;;;;;;;2.66;65.13;96475.84;4247266;27;20050;-62
2023/02/13 09:39:27;;;;;;;63.97;32.65;;;;;;;2.99;64.81;96470.09;4247789;27;20100;-61
2023/02/13 09:41:40;;;;;;;69.00;36.33;;;;;;;3.12;64.30;96472.09;4246918;27;20128;-61
2023/02/13 09:43:53;;;;;;;64.38;34.72;;;;;;;2.79;64.95;96468.38;4240358;27;20093;-63
2023/02/13 09:46:00;;;;;;;72.93;37.10;;;;;;;2.31;66.34;96472.19;4247286;27;20043;-62
2023/02/13 09:48:03;;;;;;;65.95;35.03;;;;;;;1.92;67.50;96472.97;4235553;27;20059;-63
2023/02/13 09:50:15;;;;;;;65.68;35.33;;;;;;;1.67;68.59;96480.03;4232765;27;20094;-65
2023/02/13 09:52:17;;;;;;;67.80;33.47;;;;;;;1.70;69.55;96473.00;4242159;27;20050;-63
2023/02/13 09:54:19;;;;;;;68.72;35.90;;;;;;;1.91;69.50;96462.66;4232434;27;20083;-63
2023/02/13 09:56:39;;;;;;;64.97;34.22;;;;;;;2.32;66.46;96471.28;4234289;27;20506;-61
2023/02/13 09:58:45;;;;;;;64.25;32.28;;;;;;;2.20;66.68;96464.06;4243610;27;20047;-61
2023/02/13 10:00:56;;;;;;;66.75;35.35;;;;;;;2.38;66.01;96460.66;4235060;27;20047;-62
2023/02/13 10:02:58;;;;;;;66.03;32.03;;;;;;;2.30;65.25;96449.81;4233207;27;20127;-60
2023/02/13 10:05:15;;;;;;;68.55;33.92;;;;;;;2.35;66.07;96449.66;4238935;27;20243;-63
2023/02/13 10:07:38;;;;;;;62.33;33.13;;;;;;;2.78;65.30;96445.16;4232831;27;20039;-64
2023/02/13 10:10:01;;;;;;;65.75;33.13;;;;;;;3.37;63.35;96436.38;4239036;27;20498;-62
2023/02/13 10:12:21;;;;;;;67.15;33.60;;;;;;;2.78;63.88;96448.59;4241807;27;20057;-62
2023/02/13 10:14:30;;;;;;;56.38;30.25;;;;;;;2.41;65.37;96442.44;4229127;28;20139;-62
2023/02/13 10:16:52;;;;;;;60.33;31.60;;;;;;;2.91;64.77;96441.13;4241961;27;20082;-60
2023/02/13 10:18:58;;;;;;;63.60;32.53;;;;;;;3.15;63.87;96428.78;4232407;27;20066;-61
2023/02/13 10:21:01;;;;;;;65.38;31.80;;;;;;;3.04;63.49;96418.09;4231276;27;20454;-62
2023/02/13 10:23:28;;;;;;;57.08;30.42;;;;;;;2.99;64.32;96420.91;4229425;27;20112;-60
2023/02/13 10:25:41;;;;;;;54.80;28.42;;;;;;;3.42;62.83;96418.03;4233132;27;20542;-62